Time;durP1;ratioP1;P1;durP2;ratioP2;P2;SDS_P1;SDS_P2;PMS_P1;PMS_P2;Temp;Humidity;BMP_temperature;BMP_pressure;BME280_temperature;BME280_humidity;BME280_pressure;Samples;Min_cycle;Max_cycle;Signal;HPM_P1;HPM_P2
2023/02/24 00:01:36;;;;;;;;;;;;;;;5.94;91.28;93458.03;5008277;28;19920;-55
2023/02/24 00:04:01;;;;;;;;;;;;;;;5.98;90.60;93452.25;5008580;28;19913;-55
2023/02/24 00:06:34;;;;;;;;;;;;;;;5.97;90.84;93456.25;5008038;28;19944;-54
2023/02/24 00:09:20;;;;;;;;;;;;;;;5.96;89.87;93457.50;5008759;28;20004;-55
2023/02/24 00:11:56;;;;;;;;;;;;;;;6.02;90.51;93452.69;5007641;28;19918;-56
2023/02/24 00:14:22;;;;;;;;;;;;;;;5.92;89.83;93444.09;5016981;28;20328;-54
2023/02/24 00:16:47;;;;;;;;;;;;;;;5.82;91.23;93445.72;5007237;28;20401;-54
2023/02/24 00:19:13;;;;;;;;;;;;;;;5.82;91.54;93442.97;5008266;28;19945;-54
2023/02/24 00:21:39;;;;;;;;;;;;;;;5.88;90.50;93443.66;5008065;28;19924;-53
2023/02/24 00:24:05;;;;;;;;;;;;;;;6.00;89.59;93434.03;5008107;28;20380;-54
2023/02/24 00:26:30;;;;;;;;;;;;;;;5.84;90.42;93445.22;5012851;28;19995;-55
2023/02/24 00:28:58;;;;;;;;;;;;;;;5.98;89.72;93442.03;5028242;28;20427;-55
2023/02/24 00:31:24;;;;;;;;;;;;;;;5.78;90.43;93441.78;5021674;28;19949;-54
2023/02/24 00:33:49;;;;;;;;;;;;;;;5.95;90.59;93450.56;5020065;28;19979;-55
2023/02/24 00:36:22;;;;;;;;;;;;;;;5.93;89.44;93442.13;5027285;28;19929;-55
2023/02/24 00:38:48;;;;;;;;;;;;;;;6.02;89.86;93447.94;5028114;28;20108;-54
2023/02/24 00:41:14;;;;;;;;;;;;;;;6.09;88.44;93444.63;5027969;28;20023;-55
2023/02/24 00:43:45;;;;;;;;;;;;;;;5.98;88.69;93441.28;5027743;28;19967;-54
2023/02/24 00:46:11;;;;;;;;;;;;;;;5.93;88.87;93431.16;5027558;28;20120;-54
2023/02/24 00:48:39;;;;;;;;;;;;;;;5.89;89.49;93442.38;5027700;28;20038;-55
2023/02/24 00:51:11;;;;;;;;;;;;;;;5.77;89.73;93432.06;5027779;28;20297;-54
2023/02/24 00:53:37;;;;;;;;;;;;;;;5.77;89.92;93438.31;5027375;28;19919;-55
2023/02/24 00:56:05;;;;;;;;;;;;;;;5.78;89.85;93433.56;5027194;28;20012;-54
2023/02/24 00:58:31;;;;;;;;;;;;;;;5.65;90.14;93404.06;5021530;28;19918;-55
2023/02/24 01:00:57;;;;;;;;;;;;;;;5.76;89.73;93423.09;5008049;28;19920;-55
2023/02/24 01:03:22;;;;;;;;;;;;;;;5.63;90.42;93416.81;5007634;28;19953;-55
2023/02/24 01:05:47;;;;;;;;;;;;;;;5.71;90.25;93412.97;5007826;28;19917;-55
2023/02/24 01:08:20;;;;;;;;;;;;;;;5.69;90.06;93409.28;5007706;28;19961;-55
2023/02/24 01:12:16;;;;;;;;;;;;;;;5.74;89.75;93403.72;5020746;28;19921;-56
2023/02/24 01:13:38;;;;;;;;;;;;;;;5.75;89.74;93401.72;5027498;28;19984;-55
2023/02/24 01:16:03;;;;;;;;;;;;;;;5.63;90.04;93401.13;5011331;28;20397;-54
2023/02/24 01:18:29;;;;;;;;;;;;;;;5.73;89.20;93399.50;5007755;28;19917;-55
2023/02/24 01:20:57;;;;;;;;;;;;;;;5.59;90.38;93395.19;5008370;28;19987;-53
2023/02/24 01:23:23;;;;;;;;;;;;;;;5.70;89.96;93397.78;5007826;28;20471;-55
2023/02/24 01:25:48;;;;;;;;;;;;;;;5.79;89.99;93399.41;5007871;28;19918;-56
2023/02/24 01:28:14;;;;;;;;;;;;;;;5.92;88.35;93394.78;5008512;28;19913;-55
2023/02/24 01:30:41;;;;;;;;;;;;;;;5.87;87.19;93400.31;5011520;28;19913;-54
2023/02/24 01:33:07;;;;;;;;;;;;;;;5.91;87.35;93392.56;5019662;28;19920;-55
2023/02/24 01:35:34;;;;;;;;;;;;;;;5.38;90.43;93400.44;5011119;28;19922;-54
2023/02/24 01:38:00;;;;;;;;;;;;;;;5.79;88.24;93396.69;5011480;28;19941;-55
2023/02/24 01:40:26;;;;;;;;;;;;;;;5.70;88.84;93399.78;5011385;28;19917;-55
2023/02/24 01:42:51;;;;;;;;;;;;;;;5.76;89.34;93403.22;5011328;28;19996;-55
2023/02/24 01:45:21;;;;;;;;;;;;;;;5.76;89.03;93408.69;5010904;28;19929;-54
2023/02/24 01:47:47;;;;;;;;;;;;;;;5.82;87.98;93398.38;5011297;28;20614;-55
2023/02/24 01:50:14;;;;;;;;;;;;;;;5.51;89.40;93393.56;5011180;28;19914;-55
2023/02/24 01:52:40;;;;;;;;;;;;;;;5.59;89.72;93399.97;5010338;28;19922;-54
2023/02/24 01:55:07;;;;;;;;;;;;;;;5.57;90.13;93402.44;5009555;28;19998;-56
2023/02/24 01:57:33;;;;;;;;;;;;;;;5.66;88.82;93408.31;5009473;28;20016;-56
2023/02/24 02:00:09;;;;;;;;;;;;;;;5.56;89.20;93398.25;5024378;28;20004;-56
2023/02/24 02:02:35;;;;;;;;;;;;;;;5.45;89.78;93393.66;5010263;28;20370;-55
2023/02/24 02:05:04;;;;;;;;;;;;;;;5.43;90.65;93398.91;5009651;28;20012;-55
2023/02/24 02:07:29;;;;;;;;;;;;;;;5.56;89.46;93400.97;5010399;28;19932;-55
2023/02/24 02:09:56;;;;;;;;;;;;;;;5.48;89.80;93400.81;5010709;28;19952;-55
2023/02/24 02:12:22;;;;;;;;;;;;;;;5.37;90.29;93396.22;5009552;28;19951;-55
2023/02/24 02:14:51;;;;;;;;;;;;;;;5.30;92.26;93396.81;5010720;28;19913;-55
2023/02/24 02:17:16;;;;;;;;;;;;;;;5.54;90.42;93392.53;5009170;28;19917;-56
2023/02/24 02:19:44;;;;;;;;;;;;;;;5.58;90.44;93395.72;5010448;28;19917;-55
2023/02/24 02:22:09;;;;;;;;;;;;;;;5.69;88.74;93393.59;5010258;28;19928;-56
2023/02/24 02:24:35;;;;;;;;;;;;;;;5.41;90.31;93395.94;5010663;28;19918;-55
2023/02/24 02:27:18;;;;;;;;;;;;;;;5.49;90.87;93401.56;5011234;28;19921;-56
2023/02/24 02:29:46;;;;;;;;;;;;;;;5.53;90.62;93402.75;5008885;28;19913;-56
2023/02/24 02:32:15;;;;;;;;;;;;;;;5.68;89.98;93405.03;5013519;28;19983;-56
2023/02/24 02:34:44;;;;;;;;;;;;;;;5.78;89.13;93397.94;5029641;28;19935;-55
2023/02/24 02:37:14;;;;;;;;;;;;;;;5.86;88.13;93398.84;5028115;28;19921;-55
2023/02/24 02:39:58;;;;;;;;;;;;;;;5.80;88.29;93398.19;5027518;28;19936;-55
2023/02/24 02:42:29;;;;;;;;;;;;;;;5.71;89.17;93404.75;5029697;28;19918;-56
2023/02/24 02:45:03;;;;;;;;;;;;;;;5.61;88.35;93409.13;5028638;28;19923;-54
2023/02/24 02:47:33;;;;;;;;;;;;;;;5.75;88.27;93404.47;5027961;28;20449;-56
2023/02/24 02:50:09;;;;;;;;;;;;;;;5.65;88.89;93409.56;5029759;28;20007;-55
2023/02/24 02:52:38;;;;;;;;;;;;;;;5.58;89.96;93412.91;5028188;28;19917;-55
2023/02/24 02:55:08;;;;;;;;;;;;;;;5.52;89.94;93406.75;5011976;28;20577;-56
2023/02/24 02:57:34;;;;;;;;;;;;;;;5.56;90.21;93409.19;5029242;28;20439;-55
2023/02/24 03:00:12;;;;;;;;;;;;;;;5.67;89.38;93420.00;5028143;28;19956;-56
2023/02/24 03:02:38;;;;;;;;;;;;;;;5.68;89.20;93414.00;5029191;28;19925;-56
2023/02/24 03:05:08;;;;;;;;;;;;;;;5.50;89.43;93416.75;5029400;28;19917;-55
2023/02/24 03:07:36;;;;;;;;;;;;;;;5.61;88.64;93416.59;5027954;28;19921;-56
2023/02/24 03:10:04;;;;;;;;;;;;;;;5.68;88.53;93413.25;5027855;28;19944;-56
2023/02/24 03:12:31;;;;;;;;;;;;;;;5.67;88.16;93398.84;5029004;28;19924;-56
2023/02/24 03:14:57;;;;;;;;;;;;;;;5.51;89.72;93404.53;5027624;28;19917;-55
2023/02/24 03:17:24;;;;;;;;;;;;;;;5.36;90.50;93404.97;5028001;28;20450;-56
2023/02/24 03:19:58;;;;;;;;;;;;;;;5.38;89.90;93407.91;5027606;28;20468;-56
2023/02/24 03:22:34;;;;;;;;;;;;;;;5.41;89.90;93395.94;5028812;28;19925;-56
2023/02/24 03:25:00;;;;;;;;;;;;;;;5.41;90.33;93393.19;5027428;28;19917;-56
2023/02/24 03:27:44;;;;;;;;;;;;;;;5.44;90.25;93400.38;5015387;28;19914;-54
2023/02/24 03:30:11;;;;;;;;;;;;;;;5.35;91.18;93392.50;5008874;28;19967;-56
2023/02/24 03:32:57;;;;;;;;;;;;;;;5.33;91.41;93384.81;5014967;28;19917;-56
2023/02/24 03:35:26;;;;;;;;;;;;;;;5.33;90.20;93384.06;5027275;28;19925;-56
2023/02/24 03:37:54;;;;;;;;;;;;;;;5.32;90.92;93388.84;5029009;28;19944;-55
2023/02/24 03:40:19;;;;;;;;;;;;;;;5.26;90.64;93382.66;5028676;28;19917;-56
2023/02/24 03:42:46;;;;;;;;;;;;;;;5.09;92.85;93387.59;5028666;28;19913;-55
2023/02/24 03:45:12;;;;;;;;;;;;;;;5.16;91.28;93391.75;5028564;28;20297;-56
2023/02/24 03:47:37;;;;;;;;;;;;;;;5.11;92.35;93395.31;5027392;28;19971;-56
2023/02/24 03:50:13;;;;;;;;;;;;;;;5.13;91.93;93384.59;5028542;28;19956;-55
2023/02/24 03:52:38;;;;;;;;;;;;;;;5.14;91.13;93394.25;5028044;28;19917;-56
2023/02/24 03:55:07;;;;;;;;;;;;;;;4.99;92.29;93391.94;5028431;28;19913;-56
2023/02/24 03:57:33;;;;;;;;;;;;;;;5.06;91.91;93385.16;5028699;28;19913;-56
2023/02/24 04:00:19;;;;;;;;;;;;;;;4.99;92.25;93382.97;5010571;28;20369;-56
2023/02/24 04:02:44;;;;;;;;;;;;;;;5.06;91.54;93383.16;5007378;28;19921;-56
2023/02/24 04:05:28;;;;;;;;;;;;;;;5.00;92.36;93379.72;5007173;28;19920;-56
2023/02/24 04:07:56;;;;;;;;;;;;;;;4.94;92.72;93376.31;5007368;28;19960;-55
2023/02/24 04:10:33;;;;;;;;;;;;;;;5.02;91.69;93374.50;5008369;28;20421;-56
2023/02/24 04:13:21;;;;;;;;;;;;;;;5.03;92.34;93383.44;5007193;28;19991;-55
2023/02/24 04:15:47;;;;;;;;;;;;;;;5.01;92.46;93378.47;5013642;28;19913;-56
2023/02/24 04:18:14;;;;;;;;;;;;;;;5.02;92.01;93376.50;5026633;28;20000;-55
2023/02/24 04:20:40;;;;;;;;;;;;;;;4.96;91.87;93371.06;5026861;28;19921;-57
2023/02/24 04:23:09;;;;;;;;;;;;;;;4.97;91.90;93364.34;5026556;28;20016;-56
2023/02/24 04:25:35;;;;;;;;;;;;;;;5.00;92.20;93365.31;5026599;28;19928;-56
2023/02/24 04:28:00;;;;;;;;;;;;;;;4.97;92.23;93358.88;5009220;28;20401;-57
2023/02/24 04:30:27;;;;;;;;;;;;;;;5.00;91.94;93351.66;5007008;28;19922;-56
2023/02/24 04:32:52;;;;;;;;;;;;;;;4.95;91.95;93355.19;5011435;28;20031;-56
2023/02/24 04:35:19;;;;;;;;;;;;;;;4.91;92.47;93343.78;5006671;28;20507;-56
2023/02/24 04:37:44;;;;;;;;;;;;;;;4.81;94.06;93334.47;5008322;28;19917;-56
2023/02/24 04:40:15;;;;;;;;;;;;;;;4.72;94.61;93337.53;5008440;28;19917;-55
2023/02/24 04:42:45;;;;;;;;;;;;;;;4.82;93.99;93331.19;5007825;28;19924;-56
2023/02/24 04:45:26;;;;;;;;;;;;;;;4.96;93.77;93334.78;5007976;28;19972;-55
2023/02/24 04:47:59;;;;;;;;;;;;;;;5.08;92.90;93330.66;5007954;28;19967;-56
2023/02/24 04:50:25;;;;;;;;;;;;;;;4.90;92.27;93334.84;5008211;28;19923;-56
2023/02/24 04:52:54;;;;;;;;;;;;;;;5.02;91.99;93328.00;5008020;28;20261;-56
2023/02/24 04:55:21;;;;;;;;;;;;;;;5.06;92.12;93335.91;5007722;28;19924;-56
2023/02/24 04:57:47;;;;;;;;;;;;;;;4.99;91.65;93333.75;5007556;28;19933;-56
2023/02/24 05:00:21;;;;;;;;;;;;;;;4.90;92.73;93320.41;5027348;28;19921;-56
2023/02/24 05:02:48;;;;;;;;;;;;;;;4.89;92.76;93324.41;5026657;28;19928;-56
2023/02/24 05:05:13;;;;;;;;;;;;;;;4.85;93.34;93332.19;5031545;28;20581;-55
2023/02/24 05:07:39;;;;;;;;;;;;;;;4.93;93.27;93330.34;5031768;28;20023;-56
2023/02/24 05:10:04;;;;;;;;;;;;;;;5.06;92.59;93333.16;5031602;28;19913;-55
2023/02/24 05:12:30;;;;;;;;;;;;;;;4.86;92.12;93341.84;5031319;28;20016;-56
2023/02/24 05:15:00;;;;;;;;;;;;;;;4.89;93.12;93341.56;5024703;28;19996;-56
2023/02/24 05:17:25;;;;;;;;;;;;;;;4.75;93.29;93348.19;5011813;28;19917;-56
2023/02/24 05:22:35;;;;;;;;;;;;;;;5.05;91.02;93351.56;5011616;28;19920;-56
2023/02/24 05:25:00;;;;;;;;;;;;;;;4.77;92.76;93350.38;5011888;28;19913;-57
2023/02/24 05:27:26;;;;;;;;;;;;;;;5.04;92.02;93352.09;5023371;28;19925;-56
2023/02/24 05:29:54;;;;;;;;;;;;;;;4.74;93.60;93360.38;5030924;28;19920;-56
2023/02/24 05:32:20;;;;;;;;;;;;;;;4.80;93.91;93352.13;5017479;28;19924;-56
2023/02/24 05:34:46;;;;;;;;;;;;;;;4.91;93.07;93349.25;5010897;28;20012;-56
2023/02/24 05:37:11;;;;;;;;;;;;;;;4.99;92.42;93350.91;5011185;28;20353;-56
2023/02/24 05:39:36;;;;;;;;;;;;;;;5.01;91.38;93350.38;5011469;28;19913;-56
2023/02/24 05:42:05;;;;;;;;;;;;;;;4.86;93.05;93352.78;5011127;28;20024;-56
2023/02/24 05:44:31;;;;;;;;;;;;;;;4.91;93.39;93349.25;5010990;28;20129;-57
2023/02/24 05:46:59;;;;;;;;;;;;;;;4.93;93.38;93347.50;5011449;28;20441;-56
2023/02/24 05:49:28;;;;;;;;;;;;;;;5.05;92.49;93343.38;5009614;28;19972;-57
2023/02/24 05:51:54;;;;;;;;;;;;;;;5.04;92.62;93352.09;5010558;28;20397;-56
2023/02/24 05:54:28;;;;;;;;;;;;;;;4.98;92.23;93345.94;5011537;28;20453;-55
2023/02/24 05:56:55;;;;;;;;;;;;;;;4.87;92.80;93344.09;5030261;28;20419;-56
2023/02/24 05:59:21;;;;;;;;;;;;;;;4.98;93.15;93354.16;5017576;28;20385;-56
2023/02/24 06:01:46;;;;;;;;;;;;;;;5.05;92.64;93359.78;5011010;28;19921;-57
2023/02/24 06:04:19;;;;;;;;;;;;;;;4.90;92.28;93356.72;5010604;28;20004;-57
2023/02/24 06:06:46;;;;;;;;;;;;;;;4.97;93.24;93358.13;5010573;28;19918;-57
2023/02/24 06:09:12;;;;;;;;;;;;;;;5.17;92.20;93365.88;5010521;28;19914;-55
2023/02/24 06:11:39;;;;;;;;;;;;;;;5.01;92.63;93367.53;5010592;28;19917;-56
2023/02/24 06:14:07;;;;;;;;;;;;;;;5.03;92.16;93361.53;5010213;28;19921;-56
2023/02/24 06:16:33;;;;;;;;;;;;;;;5.13;91.73;93368.16;5010382;28;19940;-57
2023/02/24 06:18:59;;;;;;;;;;;;;;;5.23;90.46;93374.75;5010087;28;19917;-56
2023/02/24 06:21:28;;;;;;;;;;;;;;;5.11;91.12;93373.41;5010635;28;20318;-57
2023/02/24 06:23:53;;;;;;;;;;;;;;;4.96;92.72;93379.28;5010038;28;20000;-57
2023/02/24 06:26:20;;;;;;;;;;;;;;;5.05;92.37;93369.97;5009811;28;19929;-57
2023/02/24 06:28:46;;;;;;;;;;;;;;;4.94;93.97;93375.56;5010632;28;19917;-57
2023/02/24 06:31:12;;;;;;;;;;;;;;;5.00;93.47;93373.53;5013968;28;19979;-57
2023/02/24 06:33:39;;;;;;;;;;;;;;;5.18;92.45;93379.03;5010757;28;19918;-56
2023/02/24 06:36:05;;;;;;;;;;;;;;;4.89;94.20;93381.84;5009931;28;19972;-57
2023/02/24 06:38:31;;;;;;;;;;;;;;;4.86;94.56;93383.63;5008531;28;19914;-57
2023/02/24 06:40:57;;;;;;;;;;;;;;;4.97;93.39;93371.81;5008823;28;19972;-55
2023/02/24 06:43:22;;;;;;;;;;;;;;;4.85;93.10;93365.72;5009976;28;19944;-55
2023/02/24 06:45:47;;;;;;;;;;;;;;;4.87;94.28;93384.38;5009472;28;20386;-57
2023/02/24 06:48:12;;;;;;;;;;;;;;;4.83;94.65;93375.72;5009788;28;19993;-57
2023/02/24 06:50:39;;;;;;;;;;;;;;;4.93;94.48;93376.84;5010826;28;19917;-57
2023/02/24 06:53:08;;;;;;;;;;;;;;;5.00;95.19;93366.03;5029362;28;19924;-57
2023/02/24 06:55:34;;;;;;;;;;;;;;;5.19;92.61;93372.31;5029792;28;19956;-56
2023/02/24 06:58:03;;;;;;;;;;;;;;;5.14;91.82;93369.63;5026334;28;19944;-57
2023/02/24 07:00:35;;;;;;;;;;;;;;;5.05;91.93;93367.25;5008525;28;19918;-57
2023/02/24 07:03:13;;;;;;;;;;;;;;;5.08;92.49;93363.47;5009565;28;19971;-57
2023/02/24 07:05:39;;;;;;;;;;;;;;;5.10;93.43;93366.44;5009403;28;19922;-57
2023/02/24 07:08:07;;;;;;;;;;;;;;;5.11;93.87;93363.19;5009535;28;19914;-57
2023/02/24 07:10:32;;;;;;;;;;;;;;;5.21;91.99;93356.13;5009665;28;19917;-57
2023/02/24 07:12:58;;;;;;;;;;;;;;;5.10;91.61;93355.50;5009352;28;20413;-57
2023/02/24 07:15:23;;;;;;;;;;;;;;;4.89;94.21;93346.28;5009419;28;19918;-57
2023/02/24 07:17:49;;;;;;;;;;;;;;;4.99;94.64;93339.97;5009449;28;19953;-57
2023/02/24 07:20:24;;;;;;;;;;;;;;;4.88;95.75;93340.09;5009320;28;19924;-57
2023/02/24 07:22:49;;;;;;;;;;;;;;;5.00;95.46;93340.69;5009163;28;19917;-57
2023/02/24 07:25:31;;;;;;;;;;;;;;;5.11;94.74;93335.81;5008817;28;19913;-57
2023/02/24 07:27:58;;;;;;;;;;;;;;;5.08;94.24;93336.13;5008836;28;20500;-57
2023/02/24 07:30:24;;;;;;;;;;;;;;;4.81;95.30;93331.72;5008685;28;19929;-57
2023/02/24 07:32:54;;;;;;;;;;;;;;;5.03;94.78;93329.47;5013376;28;19927;-57
2023/02/24 07:35:19;;;;;;;;;;;;;;;5.18;93.40;93337.22;5008953;28;20329;-58
2023/02/24 07:37:47;;;;;;;;;;;;;;;5.12;93.64;93339.31;5008908;28;19914;-57
2023/02/24 07:40:16;;;;;;;;;;;;;;;5.32;93.68;93336.81;5008894;28;20063;-58
2023/02/24 07:42:41;;;;;;;;;;;;;;;5.55;93.15;93334.50;5009140;28;19917;-58
2023/02/24 07:45:07;;;;;;;;;;;;;;;5.74;92.01;93342.72;5008425;28;19925;-57
2023/02/24 07:47:34;;;;;;;;;;;;;;;5.80;91.71;93344.13;5015198;28;19921;-57
2023/02/24 07:50:01;;;;;;;;;;;;;;;5.69;93.16;93343.53;5028395;28;19925;-57
2023/02/24 07:52:27;;;;;;;;;;;;;;;5.93;92.40;93341.44;5028040;28;19917;-57
2023/02/24 07:54:53;;;;;;;;;;;;;;;6.23;91.04;93343.25;5027920;28;19924;-57
2023/02/24 07:57:19;;;;;;;;;;;;;;;6.38;89.73;93335.25;5028385;28;19917;-58
2023/02/24 07:59:44;;;;;;;;;;;;;;;6.51;86.82;93329.81;5012262;28;19975;-57
2023/02/24 08:02:10;;;;;;;;;;;;;;;6.49;86.95;93335.81;5008096;28;19917;-57
2023/02/24 08:04:39;;;;;;;;;;;;;;;6.30;86.85;93329.69;5007271;28;20008;-58
2023/02/24 08:07:11;;;;;;;;;;;;;;;5.92;87.74;93337.25;5007996;28;20449;-57
2023/02/24 08:10:08;;;;;;;;;;;;;;;5.73;89.21;93333.03;5008422;28;20313;-57
2023/02/24 08:12:33;;;;;;;;;;;;;;;5.58;90.10;93349.16;5008292;28;20016;-57
2023/02/24 08:14:59;;;;;;;;;;;;;;;5.28;89.81;93321.94;5007867;28;19924;-57
2023/02/24 08:17:25;;;;;;;;;;;;;;;5.34;91.11;93341.78;5008073;28;20012;-57
2023/02/24 08:20:20;;;;;;;;;;;;;;;5.31;91.93;93349.00;5008430;28;20361;-57
2023/02/24 08:22:36;;;;;;;;;;;;;;;5.47;91.12;93344.59;5007918;28;19920;-58
2023/02/24 08:25:05;;;;;;;;;;;;;;;5.46;90.84;93343.09;5008073;28;20008;-57
2023/02/24 08:27:31;;;;;;;;;;;;;;;5.36;92.35;93340.00;5019788;28;20364;-57
2023/02/24 08:29:57;;;;;;;;;;;;;;;5.37;92.74;93340.75;5027547;28;19917;-57
2023/02/24 08:32:25;;;;;;;;;;;;;;;5.47;92.84;93333.63;5018917;28;19917;-58
2023/02/24 08:34:55;;;;;;;;;;;;;;;5.78;91.60;93334.94;5007956;28;20024;-57
2023/02/24 08:37:21;;;;;;;;;;;;;;;5.55;90.32;93333.75;5007352;28;19967;-58
2023/02/24 08:39:46;;;;;;;;;;;;;;;5.58;91.21;93328.00;5007993;28;19917;-57
2023/02/24 08:42:13;;;;;;;;;;;;;;;5.66;91.67;93320.66;5007682;28;20011;-57
2023/02/24 08:44:39;;;;;;;;;;;;;;;5.92;89.29;93318.06;5021215;28;19936;-57
2023/02/24 08:47:06;;;;;;;;;;;;;;;5.74;90.09;93313.31;5027865;28;20596;-58
2023/02/24 08:49:32;;;;;;;;;;;;;;;6.02;89.66;93316.41;5027639;28;19968;-57
2023/02/24 08:52:01;;;;;;;;;;;;;;;6.27;89.39;93314.25;5027559;28;19917;-58
2023/02/24 08:54:26;;;;;;;;;;;;;;;6.32;87.63;93315.44;5027619;28;19924;-56
2023/02/24 08:56:54;;;;;;;;;;;;;;;6.33;87.74;93303.94;5027631;28;19917;-57
2023/02/24 08:59:42;;;;;;;;;;;;;;;6.98;85.80;93316.94;5015094;28;19922;-58
2023/02/24 09:02:28;;;;;;;;;;;;;;;7.85;80.22;93314.88;5007704;28;20439;-58
2023/02/24 09:04:57;;;;;;;;;;;;;;;8.44;76.89;93305.00;5008209;28;20309;-58
2023/02/24 09:07:24;;;;;;;;;;;;;;;8.29;75.67;93320.09;5007475;28;19922;-58
2023/02/24 09:09:55;;;;;;;;;;;;;;;8.52;78.47;93301.03;5007512;28;19984;-58
2023/02/24 09:12:27;;;;;;;;;;;;;;;8.98;73.63;93310.34;5007648;28;19928;-58
2023/02/24 09:15:06;;;;;;;;;;;;;;;8.94;74.64;93309.94;5007789;28;20004;-57
2023/02/24 09:18:06;;;;;;;;;;;;;;;9.73;69.50;93315.47;5007366;28;19917;-57
2023/02/24 09:23:28;;;;;;;;;;;;;;;9.28;70.23;93298.75;5007461;28;19928;-57
2023/02/24 09:25:43;;;;;;;;;;;;;;;9.74;69.85;93305.91;5007017;28;19944;-57
2023/02/24 09:28:23;;;;;;;;;;;;;;;10.71;65.84;93298.34;5007686;28;20349;-57
2023/02/24 09:30:49;;;;;;;;;;;;;;;10.64;65.70;93295.03;5008032;28;20008;-57
2023/02/24 09:33:18;;;;;;;;;;;;;;;10.49;65.89;93295.03;5011111;28;19964;-57
2023/02/24 09:35:45;;;;;;;;;;;;;;;10.64;67.44;93291.53;5007182;28;19983;-57
2023/02/24 09:38:15;;;;;;;;;;;;;;;10.70;64.83;93297.59;5006996;28;19947;-57
2023/02/24 09:40:47;;;;;;;;;;;;;;;9.70;67.11;93294.50;5019469;28;19921;-57
2023/02/24 09:43:16;;;;;;;;;;;;;;;9.56;69.03;93295.91;5025955;28;19924;-57
2023/02/24 09:45:45;;;;;;;;;;;;;;;9.46;69.52;93298.47;5027299;28;19917;-57
2023/02/24 09:48:20;;;;;;;;;;;;;;;9.30;70.65;93293.41;5025760;28;19924;-57
2023/02/24 09:50:45;;;;;;;;;;;;;;;8.88;72.62;93288.06;5028601;28;20055;-57
2023/02/24 09:53:19;;;;;;;;;;;;;;;9.51;71.53;93283.03;5029424;28;20019;-57
2023/02/24 09:56:02;;;;;;;;;;;;;;;9.57;70.55;93283.63;5030698;28;20435;-57
2023/02/24 09:58:31;;;;;;;;;;;;;;;9.65;69.51;93281.63;5024827;28;19917;-57
2023/02/24 10:01:21;;;;;;;;;;;;;;;9.49;69.02;93272.56;5009351;28;20447;-57
2023/02/24 10:03:50;;;;;;;;;;;;;;;9.25;70.07;93273.00;5010330;28;19917;-58
2023/02/24 10:06:34;;;;;;;;;;;;;;;9.66;69.06;93272.81;5010459;28;19921;-57
2023/02/24 10:09:10;;;;;;;;;;;;;;;9.75;67.68;93266.75;5010739;28;20052;-57
2023/02/24 10:11:37;;;;;;;;;;;;;;;9.75;68.16;93269.53;5009255;28;19918;-57
2023/02/24 10:14:04;;;;;;;;;;;;;;;9.45;69.95;93265.94;5010289;28;19922;-57
2023/02/24 10:16:40;;;;;;;;;;;;;;;9.90;67.76;93253.00;5025519;28;20297;-58
2023/02/24 10:19:28;;;;;;;;;;;;;;;9.39;69.17;93254.34;5010143;28;19924;-57
2023/02/24 10:22:05;;;;;;;;;;;;;;;9.84;68.05;93244.19;5008877;28;19940;-58
2023/02/24 10:24:33;;;;;;;;;;;;;;;10.25;66.60;93232.09;5009104;28;20465;-57
2023/02/24 10:27:07;;;;;;;;;;;;;;;10.08;66.49;93242.19;5018663;28;19964;-58
2023/02/24 10:29:49;;;;;;;;;;;;;;;9.76;67.75;93240.69;5029725;28;20495;-57
2023/02/24 10:32:33;;;;;;;;;;;;;;;9.18;69.89;93235.19;5021647;28;19924;-57
2023/02/24 10:34:58;;;;;;;;;;;;;;;9.11;69.98;93228.34;5009728;28;19921;-57
2023/02/24 10:37:27;;;;;;;;;;;;;;;8.92;70.92;93225.13;5009999;28;19928;-57
2023/02/24 10:39:58;;;;;;;;;;;;;;;9.01;71.19;93224.63;5009775;28;19917;-57
2023/02/24 10:42:23;;;;;;;;;;;;;;;9.24;69.24;93221.97;5009654;28;19945;-57
2023/02/24 10:44:52;;;;;;;;;;;;;;;9.18;71.32;93222.13;5010225;28;19964;-57
2023/02/24 10:47:43;;;;;;;;;;;;;;;9.34;70.67;93219.41;5009852;28;19977;-57
2023/02/24 10:50:30;;;;;;;;;;;;;;;9.35;70.22;93216.13;5009872;28;19921;-57
2023/02/24 10:58:36;;;;;;;;;;;;;;;9.59;70.04;93188.09;5011044;28;19928;-57
2023/02/24 11:01:53;;;;;;;;;;;;;;;9.52;70.59;93188.06;5028707;28;19917;-57
2023/02/24 11:04:32;;;;;;;;;;;;;;;9.78;70.65;93182.97;5030014;28;19921;-57
2023/02/24 11:07:23;;;;;;;;;;;;;;;9.87;69.35;93176.88;5029424;28;19917;-58
2023/02/24 11:09:51;;;;;;;;;;;;;;;9.99;68.03;93171.75;5029098;28;20051;-57
2023/02/24 11:17:52;;;;;;;;;;;;;;;9.78;68.65;93162.94;5009454;28;19924;-57
2023/02/24 11:20:21;;;;;;;;;;;;;;;9.88;67.98;93150.06;5007805;28;20401;-57
2023/02/24 11:22:50;;;;;;;;;;;;;;;9.68;68.73;93150.97;5008982;28;19960;-58
2023/02/24 11:25:23;;;;;;;;;;;;;;;9.34;70.34;93145.03;5008150;28;19917;-57
2023/02/24 11:27:49;;;;;;;;;;;;;;;9.37;70.57;93136.44;5024226;28;19923;-57
2023/02/24 11:30:16;;;;;;;;;;;;;;;9.39;71.18;93130.34;5029055;28;19940;-57
2023/02/24 11:32:44;;;;;;;;;;;;;;;9.79;71.56;93126.53;5020079;28;19972;-57
2023/02/24 11:35:12;;;;;;;;;;;;;;;11.69;64.29;93116.34;5008694;28;19925;-57
2023/02/24 11:37:45;;;;;;;;;;;;;;;13.40;58.19;93110.91;5008893;28;20409;-58
2023/02/24 11:40:18;;;;;;;;;;;;;;;13.54;58.47;93105.69;5007339;28;20017;-58
2023/02/24 11:42:48;;;;;;;;;;;;;;;12.53;60.42;93108.03;5007557;28;19976;-57
2023/02/24 11:45:14;;;;;;;;;;;;;;;11.83;61.21;93103.69;5008920;28;19918;-58
2023/02/24 11:47:41;;;;;;;;;;;;;;;11.91;60.78;93098.13;5008832;28;19922;-57
2023/02/24 11:50:28;;;;;;;;;;;;;;;11.56;63.11;93108.31;5007402;28;19933;-58
2023/02/24 11:52:54;;;;;;;;;;;;;;;11.76;62.43;93095.47;5007544;28;19987;-57
2023/02/24 11:55:57;;;;;;;;;;;;;;;11.38;62.86;93101.97;5008325;28;19921;-57
2023/02/24 11:58:23;;;;;;;;;;;;;;;11.33;62.60;93093.88;4971176;28;20382;-57
2023/02/24 12:01:00;;;;;;;;;;;;;;;11.55;62.29;93092.25;4999679;28;20051;-58
2023/02/24 12:03:32;;;;;;;;;;;;;;;11.91;61.08;93078.75;5006890;28;19918;-57
2023/02/24 12:06:02;;;;;;;;;;;;;;;12.86;59.03;93074.03;5007079;28;19921;-57
2023/02/24 12:08:29;;;;;;;;;;;;;;;13.49;55.88;93068.59;5007098;28;19917;-57
2023/02/24 12:11:00;;;;;;;;;;;;;;;14.54;53.29;93064.66;5008162;28;19941;-58
2023/02/24 12:13:31;;;;;;;;;;;;;;;14.83;52.49;93057.09;5007200;28;19922;-58
2023/02/24 12:16:01;;;;;;;;;;;;;;;15.04;50.47;93066.28;5018606;28;19924;-58
2023/02/24 12:18:26;;;;;;;;;;;;;;;14.96;50.89;93057.38;5008504;28;20353;-58
2023/02/24 12:20:56;;;;;;;;;;;;;;;15.37;50.10;93054.66;5009032;28;19914;-58
2023/02/24 12:23:25;;;;;;;;;;;;;;;16.07;49.46;93048.38;5007527;28;19917;-57
2023/02/24 12:26:09;;;;;;;;;;;;;;;16.33;47.89;93047.34;5008174;28;19925;-58
2023/02/24 12:28:51;;;;;;;;;;;;;;;16.78;46.46;93034.31;5008810;28;19921;-58
2023/02/24 12:31:18;;;;;;;;;;;;;;;16.56;46.85;93030.06;5012922;28;19920;-58
2023/02/24 12:34:02;;;;;;;;;;;;;;;15.94;47.43;93032.91;5027810;28;19917;-58
2023/02/24 12:36:46;;;;;;;;;;;;;;;16.26;46.79;93019.69;5028459;28;20333;-58
2023/02/24 12:39:17;;;;;;;;;;;;;;;16.08;47.39;93019.22;5028131;28;19932;-58
2023/02/24 12:41:46;;;;;;;;;;;;;;;15.28;49.36;93027.59;5027043;28;20357;-58
2023/02/24 12:44:20;;;;;;;;;;;;;;;15.11;49.78;93020.16;5026990;28;20308;-58
2023/02/24 12:46:47;;;;;;;;;;;;;;;15.20;50.02;93011.09;5028168;28;19921;-57
2023/02/24 12:49:12;;;;;;;;;;;;;;;14.94;51.23;92995.34;5026791;28;19917;-57
2023/02/24 12:51:49;;;;;;;;;;;;;;;15.25;49.77;93007.25;5028210;28;19924;-58
2023/02/24 12:54:33;;;;;;;;;;;;;;;15.14;50.85;93002.28;5027776;28;19917;-57
2023/02/24 12:57:06;;;;;;;;;;;;;;;14.83;51.00;93004.28;5027006;28;19917;-57
2023/02/24 12:59:32;;;;;;;;;;;;;;;13.53;54.45;92996.81;5014171;28;19918;-58
2023/02/24 13:01:58;;;;;;;;;;;;;;;13.91;54.10;92995.44;5006942;28;20329;-57
2023/02/24 13:04:33;;;;;;;;;;;;;;;14.06;53.31;92990.34;5008507;28;19913;-58
2023/02/24 13:06:58;;;;;;;;;;;;;;;14.58;52.01;92981.63;5008136;28;19922;-57
2023/02/24 13:09:24;;;;;;;;;;;;;;;14.55;52.80;92975.22;5008262;28;20417;-57
2023/02/24 13:12:03;;;;;;;;;;;;;;;14.11;52.20;92980.28;5008283;28;19917;-57
2023/02/24 13:14:36;;;;;;;;;;;;;;;13.62;54.20;92975.97;5010018;28;19971;-57
2023/02/24 13:17:21;;;;;;;;;;;;;;;13.99;54.63;92974.56;5027687;28;19913;-57
2023/02/24 13:19:47;;;;;;;;;;;;;;;13.54;54.75;92976.09;5027241;28;19917;-57
2023/02/24 13:22:12;;;;;;;;;;;;;;;12.98;56.33;92966.19;5026576;28;19948;-57
2023/02/24 13:24:39;;;;;;;;;;;;;;;12.42;58.43;92973.59;5025735;28;19913;-57
2023/02/24 13:27:04;;;;;;;;;;;;;;;12.53;58.13;92975.13;5018095;28;20337;-57